KCNM/CNM METAR and TAF weather

Enter ICAO airport designator
Station Type Date Time Source
KCNM METAR 2020/07/06 09:53 UTC NOAA

KCNM 060953Z AUTO 32005KT 10SM CLR 22/16 A3000 RMK AO2 SLP095 T02220161


Station Type Date Time Source
KCNM Decoded METAR 2020/07/06 09:53 UTC NOAA

CARLSBAD CAVERN CITY, NM, United States (KCNM) 32-20N 104-16W 985M
Jul 06, 2020 - 05:53 AM EDT / 2020.07.06 0953 UTC
Wind: from the NW (320 degrees) at 6 MPH (5 KT):0
Visibility: 10 mile(s):0
Sky conditions: clear
Temperature: 72.0 F (22.2 C)
Dew Point: 61.0 F (16.1 C)
Relative Humidity: 68%
Pressure (altimeter): 30 in. Hg (1015 hPa)
ob: KCNM 060953Z AUTO 32005KT 10SM CLR 22/16 A3000 RMK AO2 SLP095 T02220161
cycle: 10

Station Type Date Time Source
KCNM TAF 2020/07/06 06:40 UTC NOAA

TAF KCNM 060537Z 0606/0706 13008KT P6SM SCT100 BKN250
FM060900 34011KT P6SM SCT250
FM061900 10009KT P6SM FEW250

Example: see airport list